Time;durP1;ratioP1;P1;durP2;ratioP2;P2;SDS_P1;SDS_P2;PMS_P1;PMS_P2;Temp;Humidity;BMP_temperature;BMP_pressure;BME280_temperature;BME280_humidity;BME280_pressure;Samples;Min_cycle;Max_cycle;Signal;HPM_P1;HPM_P2
2021/12/31 00:00:17;;;;;;;;;;;13.70;99.90;;;;;;5030865;28;19916;-69
2021/12/31 00:02:42;;;;;;;;;;;13.70;99.90;;;;;;5035869;28;19909;-72
2021/12/31 00:05:08;;;;;;;;;;;13.70;99.90;;;;;;5044231;28;20003;-72
2021/12/31 00:07:34;;;;;;;;;;;13.70;99.90;;;;;;5045406;28;19920;-71
2021/12/31 00:10:00;;;;;;;;;;;13.70;99.90;;;;;;5045916;28;19975;-72
2021/12/31 00:12:26;;;;;;;;;;;13.80;99.90;;;;;;5034875;28;19996;-70
2021/12/31 00:14:52;;;;;;;;;;;13.80;99.90;;;;;;5012587;28;19913;-71
2021/12/31 00:17:17;;;;;;;;;;;13.80;99.90;;;;;;5026070;28;19917;-71
2021/12/31 00:19:45;;;;;;;;;;;13.80;99.90;;;;;;5008992;28;19913;-69
2021/12/31 00:24:49;;;;;;;;;;;13.80;99.90;;;;;;5028130;28;19915;-71
2021/12/31 00:27:14;;;;;;;;;;;13.80;99.90;;;;;;5032158;28;20320;-73
2021/12/31 00:29:40;;;;;;;;;;;13.80;99.90;;;;;;5025806;28;19963;-71
2021/12/31 00:32:05;;;;;;;;;;;13.80;99.90;;;;;;5026865;28;19920;-72
2021/12/31 00:34:31;;;;;;;;;;;13.80;99.90;;;;;;5026453;28;19910;-71
2021/12/31 00:36:56;;;;;;;;;;;13.80;99.90;;;;;;5027828;28;19914;-70
2021/12/31 00:39:22;;;;;;;;;;;13.80;99.90;;;;;;5026238;28;20388;-71
2021/12/31 00:41:47;;;;;;;;;;;13.80;99.90;;;;;;5025940;28;20222;-73
2021/12/31 00:44:13;;;;;;;;;;;13.80;99.90;;;;;;5042924;28;19940;-72
2021/12/31 00:46:39;;;;;;;;;;;13.80;99.90;;;;;;5030434;28;19917;-71
2021/12/31 00:49:05;;;;;;;;;;;13.90;99.90;;;;;;5008727;28;20210;-72
2021/12/31 00:51:31;;;;;;;;;;;13.90;99.90;;;;;;5029742;28;19913;-72
2021/12/31 00:53:56;;;;;;;;;;;13.90;99.90;;;;;;5048171;28;20333;-71
2021/12/31 00:56:22;;;;;;;;;;;13.90;99.90;;;;;;5038965;28;19913;-71
2021/12/31 00:58:47;;;;;;;;;;;13.90;99.90;;;;;;5034065;28;19913;-73
2021/12/31 01:01:18;;;;;;;;;;;13.90;99.90;;;;;;5033060;28;19917;-70
2021/12/31 01:03:43;;;;;;;;;;;13.90;99.90;;;;;;5026047;28;19963;-69
2021/12/31 01:06:09;;;;;;;;;;;13.90;99.90;;;;;;5027312;28;19919;-71
2021/12/31 01:08:35;;;;;;;;;;;14.00;99.90;;;;;;5022828;28;19937;-70
2021/12/31 01:11:00;;;;;;;;;;;13.90;99.90;;;;;;5027671;28;19909;-70
2021/12/31 01:13:34;;;;;;;;;;;14.00;99.90;;;;;;5027762;28;19924;-70
2021/12/31 01:16:02;;;;;;;;;;;14.00;99.90;;;;;;5030818;28;19940;-69
2021/12/31 01:19:44;;;;;;;;;;;14.00;99.90;;;;;;5050288;28;19967;-70
2021/12/31 01:21:13;;;;;;;;;;;14.00;99.90;;;;;;5045660;28;19913;-71
2021/12/31 01:23:39;;;;;;;;;;;14.00;99.90;;;;;;5020811;28;19913;-70
2021/12/31 01:26:04;;;;;;;;;;;14.00;99.90;;;;;;5043917;28;19921;-70
2021/12/31 01:28:30;;;;;;;;;;;14.00;99.90;;;;;;5037975;28;20333;-71
2021/12/31 01:30:55;;;;;;;;;;;13.90;99.90;;;;;;5042649;28;19924;-70
2021/12/31 01:33:21;;;;;;;;;;;14.00;99.90;;;;;;5035511;28;19915;-70
2021/12/31 01:35:46;;;;;;;;;;;13.90;99.90;;;;;;5027759;28;20417;-69
2021/12/31 01:38:12;;;;;;;;;;;13.90;99.90;;;;;;5027420;28;19924;-70
2021/12/31 01:40:37;;;;;;;;;;;13.90;99.90;;;;;;5046194;28;20018;-71
2021/12/31 01:43:03;;;;;;;;;;;13.90;99.90;;;;;;5010565;28;19959;-71
2021/12/31 01:45:32;;;;;;;;;;;13.90;99.90;;;;;;5028198;28;19917;-70
2021/12/31 01:48:10;;;;;;;;;;;13.90;99.90;;;;;;5030772;28;20071;-70
2021/12/31 01:50:36;;;;;;;;;;;13.90;99.90;;;;;;5039060;28;19913;-70
2021/12/31 01:53:02;;;;;;;;;;;13.90;99.90;;;;;;5057143;28;19924;-71
2021/12/31 01:55:30;;;;;;;;;;;13.90;99.90;;;;;;5051325;28;20337;-74
2021/12/31 01:57:56;;;;;;;;;;;13.90;99.90;;;;;;5031355;28;19917;-69
2021/12/31 02:00:22;;;;;;;;;;;13.90;99.90;;;;;;5030413;28;20276;-75
2021/12/31 02:02:48;;;;;;;;;;;13.90;99.90;;;;;;5030438;28;20378;-69
2021/12/31 02:05:14;;;;;;;;;;;13.90;99.90;;;;;;5029407;28;19919;-70
2021/12/31 02:07:40;;;;;;;;;;;14.00;99.90;;;;;;5033561;28;19919;-71
2021/12/31 02:10:07;;;;;;;;;;;13.90;99.90;;;;;;5020680;28;19913;-70
2021/12/31 02:12:32;;;;;;;;;;;13.90;99.90;;;;;;5031604;28;19924;-70
2021/12/31 02:14:58;;;;;;;;;;;13.90;99.90;;;;;;5033039;28;20309;-71
2021/12/31 02:17:23;;;;;;;;;;;13.90;99.90;;;;;;5037635;28;20340;-71
2021/12/31 02:19:56;;;;;;;;;;;13.90;99.90;;;;;;5032361;28;20237;-74
2021/12/31 02:22:26;;;;;;;;;;;13.90;99.90;;;;;;5028834;28;19970;-73
2021/12/31 02:24:52;;;;;;;;;;;13.80;99.90;;;;;;5009591;28;19940;-69
2021/12/31 02:27:17;;;;;;;;;;;13.80;99.90;;;;;;5020314;28;20336;-72
2021/12/31 02:29:43;;;;;;;;;;;13.90;99.90;;;;;;5021427;28;20002;-70
2021/12/31 02:32:08;;;;;;;;;;;13.80;99.90;;;;;;5021096;28;19939;-72
2021/12/31 02:34:34;;;;;;;;;;;13.80;99.90;;;;;;5022153;28;19910;-73
2021/12/31 02:36:59;;;;;;;;;;;13.80;99.90;;;;;;5019263;28;19913;-72
2021/12/31 02:39:25;;;;;;;;;;;13.80;99.90;;;;;;5021224;28;19921;-69
2021/12/31 02:41:50;;;;;;;;;;;13.80;99.90;;;;;;5021047;28;20281;-71
2021/12/31 02:44:16;;;;;;;;;;;13.80;99.90;;;;;;5014891;28;19921;-72
2021/12/31 02:46:41;;;;;;;;;;;13.80;99.90;;;;;;5013274;28;19920;-70
2021/12/31 02:49:07;;;;;;;;;;;13.80;99.90;;;;;;5018385;28;19964;-70
2021/12/31 02:51:33;;;;;;;;;;;13.80;99.90;;;;;;5020491;28;19918;-71
2021/12/31 02:53:58;;;;;;;;;;;13.80;99.90;;;;;;5007730;28;19932;-71
2021/12/31 02:56:24;;;;;;;;;;;13.80;99.90;;;;;;5024132;28;19913;-70
2021/12/31 02:58:50;;;;;;;;;;;13.80;99.90;;;;;;5022375;28;19917;-70
2021/12/31 03:01:16;;;;;;;;;;;13.80;99.90;;;;;;5010284;28;19924;-71
2021/12/31 03:03:42;;;;;;;;;;;13.80;99.90;;;;;;5020601;28;19917;-69
2021/12/31 03:06:09;;;;;;;;;;;13.80;99.90;;;;;;5021095;28;20470;-67
2021/12/31 03:08:40;;;;;;;;;;;13.80;99.90;;;;;;5016714;28;19917;-71
2021/12/31 03:11:06;;;;;;;;;;;13.70;99.90;;;;;;5017769;28;19949;-70
2021/12/31 03:13:31;;;;;;;;;;;13.70;99.90;;;;;;5022039;28;19920;-75
2021/12/31 03:15:59;;;;;;;;;;;13.70;99.90;;;;;;5038759;28;19917;-69
2021/12/31 03:18:25;;;;;;;;;;;13.70;99.90;;;;;;5027519;28;20004;-73
2021/12/31 03:21:12;;;;;;;;;;;13.80;99.90;;;;;;5028787;28;20003;-76
2021/12/31 03:23:38;;;;;;;;;;;13.80;99.90;;;;;;5043299;28;20019;-72
2021/12/31 03:26:03;;;;;;;;;;;13.70;99.90;;;;;;5013474;28;20421;-69
2021/12/31 03:28:29;;;;;;;;;;;13.70;99.90;;;;;;5041306;28;20506;-71
2021/12/31 03:30:55;;;;;;;;;;;13.80;99.90;;;;;;5026428;28;19909;-70
2021/12/31 03:33:21;;;;;;;;;;;13.70;99.90;;;;;;5036283;28;19976;-72
2021/12/31 03:35:46;;;;;;;;;;;13.80;99.90;;;;;;5031368;28;20007;-71
2021/12/31 03:38:12;;;;;;;;;;;13.70;99.90;;;;;;5036660;28;20328;-70
2021/12/31 03:40:39;;;;;;;;;;;13.80;99.90;;;;;;5038113;28;19913;-73
2021/12/31 03:43:04;;;;;;;;;;;13.70;99.90;;;;;;5036339;28;19994;-70
2021/12/31 03:45:30;;;;;;;;;;;13.70;99.90;;;;;;5026774;28;19913;-70
2021/12/31 03:47:56;;;;;;;;;;;13.80;99.90;;;;;;5025976;28;20475;-69
2021/12/31 03:50:21;;;;;;;;;;;13.80;99.90;;;;;;5025526;28;20212;-70
2021/12/31 03:52:47;;;;;;;;;;;13.70;99.90;;;;;;5034034;28;19913;-74
2021/12/31 03:55:12;;;;;;;;;;;13.70;99.90;;;;;;5024905;28;19920;-70
2021/12/31 03:57:38;;;;;;;;;;;13.70;99.90;;;;;;5017241;28;20054;-69
2021/12/31 04:00:04;;;;;;;;;;;13.70;99.90;;;;;;5033652;28;19923;-72
2021/12/31 04:02:30;;;;;;;;;;;13.70;99.90;;;;;;5023653;28;19915;-70
2021/12/31 04:04:55;;;;;;;;;;;13.70;99.90;;;;;;5010926;28;19917;-70
2021/12/31 04:07:21;;;;;;;;;;;13.70;99.90;;;;;;5025016;28;19945;-71
2021/12/31 04:09:47;;;;;;;;;;;13.70;99.90;;;;;;5035533;28;20307;-70
2021/12/31 04:12:12;;;;;;;;;;;13.70;99.90;;;;;;5030426;28;19917;-71
2021/12/31 04:14:38;;;;;;;;;;;13.70;99.90;;;;;;5025656;28;20344;-72
2021/12/31 04:17:03;;;;;;;;;;;13.70;99.90;;;;;;5034332;28;19940;-70
2021/12/31 04:19:30;;;;;;;;;;;13.70;99.90;;;;;;5029575;28;19996;-69
2021/12/31 04:21:56;;;;;;;;;;;13.70;99.90;;;;;;5031029;28;20286;-69
2021/12/31 04:24:40;;;;;;;;;;;13.80;99.90;;;;;;5024307;28;19913;-70
2021/12/31 04:27:06;;;;;;;;;;;13.70;99.90;;;;;;5025970;28;19917;-71
2021/12/31 04:29:31;;;;;;;;;;;13.70;99.90;;;;;;5033448;28;19917;-69
2021/12/31 04:31:57;;;;;;;;;;;13.70;99.90;;;;;;5024947;28;20418;-70
2021/12/31 04:34:22;;;;;;;;;;;13.70;99.90;;;;;;5025021;28;19913;-70
2021/12/31 04:36:48;;;;;;;;;;;13.70;99.90;;;;;;5030441;28;19909;-69
2021/12/31 04:39:13;;;;;;;;;;;13.70;99.90;;;;;;5046409;28;19944;-69
2021/12/31 04:41:38;;;;;;;;;;;13.70;99.90;;;;;;5029096;28;20295;-70
2021/12/31 04:44:04;;;;;;;;;;;13.70;99.90;;;;;;5043357;28;19971;-70
2021/12/31 04:46:29;;;;;;;;;;;13.70;99.90;;;;;;5047115;28;20436;-70
2021/12/31 04:48:55;;;;;;;;;;;13.70;99.90;;;;;;5039260;28;19913;-70
2021/12/31 04:51:20;;;;;;;;;;;13.70;99.90;;;;;;5030561;28;19948;-70
2021/12/31 04:53:46;;;;;;;;;;;13.70;99.90;;;;;;5034731;28;19917;-69
2021/12/31 04:56:11;;;;;;;;;;;13.70;99.90;;;;;;5038301;28;19923;-70
2021/12/31 04:58:37;;;;;;;;;;;13.60;99.90;;;;;;5042742;28;19920;-69
2021/12/31 05:01:02;;;;;;;;;;;13.60;99.90;;;;;;5037466;28;19967;-67
2021/12/31 05:03:28;;;;;;;;;;;13.60;99.90;;;;;;5035305;28;19940;-71
2021/12/31 05:05:53;;;;;;;;;;;13.60;99.90;;;;;;5047996;28;20087;-73
2021/12/31 05:08:19;;;;;;;;;;;13.50;99.90;;;;;;5026771;28;19935;-75
2021/12/31 05:10:45;;;;;;;;;;;13.50;99.90;;;;;;5039999;28;20137;-70
2021/12/31 05:13:15;;;;;;;;;;;13.50;99.90;;;;;;5026108;28;19913;-71
2021/12/31 05:15:45;;;;;;;;;;;13.40;99.90;;;;;;5025525;28;19909;-69
2021/12/31 05:18:11;;;;;;;;;;;13.40;99.90;;;;;;5043207;28;19920;-72
2021/12/31 05:20:36;;;;;;;;;;;13.30;99.90;;;;;;5030830;28;19966;-70
2021/12/31 05:23:02;;;;;;;;;;;13.30;99.90;;;;;;5027657;28;20379;-75
2021/12/31 05:25:27;;;;;;;;;;;13.30;99.90;;;;;;5031775;28;19913;-70
2021/12/31 05:27:54;;;;;;;;;;;13.30;99.90;;;;;;5035691;28;20000;-70
2021/12/31 05:30:20;;;;;;;;;;;13.30;99.90;;;;;;5036660;28;19917;-71
2021/12/31 05:32:46;;;;;;;;;;;13.20;99.90;;;;;;5028997;28;20287;-71
2021/12/31 05:35:11;;;;;;;;;;;13.30;99.90;;;;;;5014259;28;19921;-69
2021/12/31 05:37:37;;;;;;;;;;;13.20;99.90;;;;;;5029315;28;20334;-69
2021/12/31 05:40:03;;;;;;;;;;;13.20;99.90;;;;;;5031562;28;19913;-69
2021/12/31 05:42:28;;;;;;;;;;;13.20;99.90;;;;;;5040814;28;20394;-70
2021/12/31 05:44:54;;;;;;;;;;;13.20;99.90;;;;;;5010519;28;19920;-69
2021/12/31 05:47:19;;;;;;;;;;;13.20;99.90;;;;;;5029891;28;19935;-73
2021/12/31 05:49:46;;;;;;;;;;;13.10;99.90;;;;;;5028860;28;19936;-72
2021/12/31 05:52:11;;;;;;;;;;;13.10;99.90;;;;;;5022620;28;19924;-71
2021/12/31 05:54:37;;;;;;;;;;;13.10;99.90;;;;;;5040021;28;20073;-71
2021/12/31 05:57:02;;;;;;;;;;;13.10;99.90;;;;;;5032080;28;19936;-71
2021/12/31 05:59:28;;;;;;;;;;;13.10;99.90;;;;;;5030449;28;19917;-70
2021/12/31 06:01:53;;;;;;;;;;;13.00;99.90;;;;;;5028917;28;19944;-69
2021/12/31 06:04:19;;;;;;;;;;;13.10;99.90;;;;;;5024539;28;19909;-70
2021/12/31 06:06:44;;;;;;;;;;;13.00;99.90;;;;;;5027039;28;19920;-71
2021/12/31 06:09:13;;;;;;;;;;;13.00;99.90;;;;;;5028908;28;20326;-70
2021/12/31 06:11:38;;;;;;;;;;;13.00;99.90;;;;;;5022226;28;20263;-70
2021/12/31 06:14:05;;;;;;;;;;;12.90;99.90;;;;;;5033872;28;20396;-70
2021/12/31 06:16:37;;;;;;;;;;;12.90;99.90;;;;;;5029274;28;20024;-69
2021/12/31 06:19:05;;;;;;;;;;;12.90;99.90;;;;;;5020016;28;19956;-70
2021/12/31 06:21:34;;;;;;;;;;;12.90;99.90;;;;;;5007437;28;19935;-70
2021/12/31 06:24:00;;;;;;;;;;;12.80;99.90;;;;;;5028681;28;20192;-70
2021/12/31 06:26:25;;;;;;;;;;;12.80;99.90;;;;;;5021586;28;19913;-66
2021/12/31 06:28:51;;;;;;;;;;;12.70;99.90;;;;;;5007734;28;20046;-70
2021/12/31 06:31:16;;;;;;;;;;;12.70;99.90;;;;;;5019653;28;19924;-70
2021/12/31 06:33:42;;;;;;;;;;;12.70;99.90;;;;;;5021174;28;19917;-69
2021/12/31 06:36:08;;;;;;;;;;;12.70;99.90;;;;;;5021628;28;19959;-69
2021/12/31 06:38:33;;;;;;;;;;;12.70;99.90;;;;;;5024444;28;19921;-70
2021/12/31 06:40:59;;;;;;;;;;;12.70;99.90;;;;;;5036862;28;19917;-70
2021/12/31 06:43:24;;;;;;;;;;;12.70;99.90;;;;;;5029042;28;19917;-69
2021/12/31 06:45:50;;;;;;;;;;;12.70;99.90;;;;;;5030966;28;19909;-67
2021/12/31 06:48:15;;;;;;;;;;;12.70;99.90;;;;;;5043920;28;19913;-69
2021/12/31 06:50:40;;;;;;;;;;;12.70;99.90;;;;;;5056633;28;20184;-71
2021/12/31 06:53:06;;;;;;;;;;;12.70;99.90;;;;;;5046495;28;19936;-71
2021/12/31 06:55:32;;;;;;;;;;;12.70;99.90;;;;;;5047493;28;19909;-73
2021/12/31 06:57:58;;;;;;;;;;;12.70;99.90;;;;;;5027678;28;19917;-70
2021/12/31 07:00:24;;;;;;;;;;;12.70;99.90;;;;;;5024190;28;19921;-69
2021/12/31 07:02:49;;;;;;;;;;;12.70;99.90;;;;;;5025916;28;19958;-69
2021/12/31 07:05:15;;;;;;;;;;;12.70;99.90;;;;;;5025678;28;20125;-70
2021/12/31 07:07:40;;;;;;;;;;;12.70;99.90;;;;;;5026021;28;19988;-69
2021/12/31 07:10:06;;;;;;;;;;;12.70;99.90;;;;;;5026312;28;20329;-71
2021/12/31 07:12:32;;;;;;;;;;;12.80;99.90;;;;;;5026523;28;20227;-72
2021/12/31 07:14:57;;;;;;;;;;;12.80;99.90;;;;;;5029707;28;19909;-70
2021/12/31 07:17:23;;;;;;;;;;;12.80;99.90;;;;;;5028151;28;20008;-67
2021/12/31 07:19:48;;;;;;;;;;;12.80;99.90;;;;;;5041368;28;19901;-67
2021/12/31 07:22:14;;;;;;;;;;;12.80;99.90;;;;;;5041189;28;20539;-70
2021/12/31 07:24:39;;;;;;;;;;;12.80;99.90;;;;;;5033460;28;19929;-70
2021/12/31 07:27:05;;;;;;;;;;;12.70;99.90;;;;;;5026732;28;19913;-71
2021/12/31 07:29:30;;;;;;;;;;;12.70;99.90;;;;;;5039099;28;20373;-70
2021/12/31 07:31:56;;;;;;;;;;;12.70;99.90;;;;;;5042725;28;19909;-68
2021/12/31 07:34:21;;;;;;;;;;;12.70;99.90;;;;;;5028273;28;19923;-71
2021/12/31 07:36:46;;;;;;;;;;;12.70;99.90;;;;;;5027915;28;19940;-72
2021/12/31 07:39:13;;;;;;;;;;;12.80;99.90;;;;;;5028184;28;20329;-68
2021/12/31 07:41:39;;;;;;;;;;;12.70;99.90;;;;;;5027974;28;19955;-68
2021/12/31 07:44:06;;;;;;;;;;;12.70;99.90;;;;;;5028215;28;19913;-73
2021/12/31 07:46:32;;;;;;;;;;;12.70;99.90;;;;;;5043253;28;19913;-75
2021/12/31 07:48:57;;;;;;;;;;;12.70;99.90;;;;;;5047559;28;19916;-73
2021/12/31 07:51:23;;;;;;;;;;;12.70;99.90;;;;;;5047711;28;19909;-73
2021/12/31 07:53:48;;;;;;;;;;;12.70;99.90;;;;;;5048434;28;20225;-69
2021/12/31 07:56:18;;;;;;;;;;;12.70;99.90;;;;;;5046090;28;20002;-70
2021/12/31 07:58:44;;;;;;;;;;;12.70;99.90;;;;;;5027904;28;19920;-71
2021/12/31 08:01:09;;;;;;;;;;;12.70;99.90;;;;;;5026974;28;19913;-70
2021/12/31 08:03:35;;;;;;;;;;;12.70;99.90;;;;;;5045608;28;20335;-70
2021/12/31 08:06:01;;;;;;;;;;;12.70;99.90;;;;;;5045045;28;19908;-70
2021/12/31 08:08:26;;;;;;;;;;;12.70;99.90;;;;;;5046242;28;20316;-70
2021/12/31 08:10:51;;;;;;;;;;;12.70;99.90;;;;;;5045522;28;19970;-70
2021/12/31 08:13:17;;;;;;;;;;;12.60;99.90;;;;;;5046166;28;19912;-71
2021/12/31 08:15:43;;;;;;;;;;;12.70;99.90;;;;;;5046221;28;19909;-69
2021/12/31 08:18:08;;;;;;;;;;;12.70;99.90;;;;;;5046809;28;19920;-72
2021/12/31 08:20:36;;;;;;;;;;;12.70;99.90;;;;;;5046615;28;20417;-67
2021/12/31 08:23:09;;;;;;;;;;;12.70;99.90;;;;;;5028594;28;19909;-71
2021/12/31 08:25:34;;;;;;;;;;;12.60;99.90;;;;;;5046315;28;19943;-71
2021/12/31 08:28:00;;;;;;;;;;;12.60;99.90;;;;;;5046042;28;20396;-73
2021/12/31 08:30:25;;;;;;;;;;;12.60;99.90;;;;;;5047612;28;19917;-71
2021/12/31 08:32:51;;;;;;;;;;;12.70;99.90;;;;;;5036730;28;19909;-68
2021/12/31 08:35:16;;;;;;;;;;;12.70;99.90;;;;;;5027944;28;20277;-70
2021/12/31 08:37:42;;;;;;;;;;;12.70;99.90;;;;;;5029426;28;19957;-69
2021/12/31 08:40:07;;;;;;;;;;;12.70;99.90;;;;;;5028168;28;19920;-69
2021/12/31 08:42:33;;;;;;;;;;;12.70;99.90;;;;;;5027362;28;20019;-71
2021/12/31 08:44:59;;;;;;;;;;;12.70;99.90;;;;;;5027746;28;19909;-72
2021/12/31 08:47:24;;;;;;;;;;;12.60;99.90;;;;;;5026106;28;19916;-70
2021/12/31 08:49:50;;;;;;;;;;;12.70;99.90;;;;;;5027595;28;19909;-72
2021/12/31 08:52:15;;;;;;;;;;;12.70;99.90;;;;;;5026229;28;19909;-72
2021/12/31 08:54:41;;;;;;;;;;;12.70;99.90;;;;;;5026134;28;20252;-71
2021/12/31 08:57:06;;;;;;;;;;;12.70;99.90;;;;;;5025815;28;20438;-71
2021/12/31 08:59:32;;;;;;;;;;;12.70;99.90;;;;;;5029785;28;19983;-70
2021/12/31 09:01:58;;;;;;;;;;;12.70;99.90;;;;;;5030274;28;19916;-69
2021/12/31 09:04:23;;;;;;;;;;;12.70;99.90;;;;;;5028935;28;19913;-70
2021/12/31 09:06:49;;;;;;;;;;;12.70;99.90;;;;;;5030338;28;19917;-72
2021/12/31 09:09:14;;;;;;;;;;;12.70;99.90;;;;;;5031422;28;19956;-70
2021/12/31 09:11:41;;;;;;;;;;;12.70;99.90;;;;;;5028749;28;19909;-70
2021/12/31 09:14:06;;;;;;;;;;;12.70;99.90;;;;;;5029833;28;19909;-70
2021/12/31 09:16:32;;;;;;;;;;;12.70;99.90;;;;;;5012337;28;19909;-70
2021/12/31 09:18:57;;;;;;;;;;;12.70;99.90;;;;;;5031036;28;19917;-70
2021/12/31 09:21:23;;;;;;;;;;;12.80;99.90;;;;;;5013671;28;19917;-70
2021/12/31 09:23:49;;;;;;;;;;;12.70;99.90;;;;;;5028791;28;19913;-70
2021/12/31 09:26:15;;;;;;;;;;;12.80;99.90;;;;;;5011643;28;20134;-70
2021/12/31 09:28:41;;;;;;;;;;;12.70;99.90;;;;;;5027743;28;19979;-71
2021/12/31 09:31:08;;;;;;;;;;;12.70;99.90;;;;;;5028542;28;20447;-70
2021/12/31 09:33:34;;;;;;;;;;;12.70;99.90;;;;;;5028890;28;20282;-71
2021/12/31 09:36:00;;;;;;;;;;;12.70;99.90;;;;;;5012496;28;19910;-69
2021/12/31 09:38:25;;;;;;;;;;;12.70;99.90;;;;;;5032623;28;20408;-71
2021/12/31 09:40:51;;;;;;;;;;;12.70;99.90;;;;;;5030678;28;19909;-72
2021/12/31 09:43:16;;;;;;;;;;;12.60;99.90;;;;;;5033297;28;19949;-72
2021/12/31 09:45:43;;;;;;;;;;;12.60;99.90;;;;;;5030141;28;19956;-70
2021/12/31 09:48:09;;;;;;;;;;;12.60;99.90;;;;;;5030681;28;19909;-72
2021/12/31 09:50:37;;;;;;;;;;;12.60;99.90;;;;;;5029960;28;19909;-72
2021/12/31 09:53:04;;;;;;;;;;;12.60;99.90;;;;;;5037126;28;19909;-72
2021/12/31 09:55:42;;;;;;;;;;;12.70;99.90;;;;;;5012653;28;20283;-70
2021/12/31 09:58:08;;;;;;;;;;;12.70;99.90;;;;;;5030335;28;19917;-71
2021/12/31 10:00:34;;;;;;;;;;;12.70;99.90;;;;;;5028979;28;20390;-70
2021/12/31 10:03:19;;;;;;;;;;;12.70;99.90;;;;;;5010893;28;19916;-71
2021/12/31 10:05:46;;;;;;;;;;;12.70;99.90;;;;;;5027888;28;19935;-70
2021/12/31 10:08:12;;;;;;;;;;;12.70;99.90;;;;;;5031132;28;20195;-69
2021/12/31 10:10:37;;;;;;;;;;;12.80;99.90;;;;;;5030332;28;19917;-71
2021/12/31 10:13:07;;;;;;;;;;;12.80;99.90;;;;;;5028798;28;19955;-71
2021/12/31 10:15:36;;;;;;;;;;;12.80;99.90;;;;;;5027743;28;19909;-70
2021/12/31 10:18:08;;;;;;;;;;;12.80;99.90;;;;;;5029246;28;19913;-73
2021/12/31 10:20:45;;;;;;;;;;;12.80;99.90;;;;;;5028890;28;19971;-74
2021/12/31 10:23:12;;;;;;;;;;;12.80;99.90;;;;;;5028034;28;19980;-74
2021/12/31 10:25:39;;;;;;;;;;;12.80;99.90;;;;;;5028745;28;20271;-74
2021/12/31 10:28:09;;;;;;;;;;;12.80;99.90;;;;;;5028198;28;20291;-69
2021/12/31 10:30:34;;;;;;;;;;;12.80;99.90;;;;;;5050133;28;19932;-71
2021/12/31 10:33:00;;;;;;;;;;;12.80;99.90;;;;;;5034739;28;20183;-70
2021/12/31 10:35:25;;;;;;;;;;;12.90;99.90;;;;;;5026338;28;19959;-71
2021/12/31 10:37:57;;;;;;;;;;;12.90;99.90;;;;;;5028841;28;19924;-69
2021/12/31 10:40:26;;;;;;;;;;;13.00;99.90;;;;;;5029146;28;19916;-73
2021/12/31 10:43:05;;;;;;;;;;;13.00;99.90;;;;;;5028172;28;19909;-73
2021/12/31 10:45:30;;;;;;;;;;;13.00;99.90;;;;;;5027052;28;19909;-69
2021/12/31 10:48:04;;;;;;;;;;;13.20;99.90;;;;;;5028174;28;20258;-70
2021/12/31 10:50:32;;;;;;;;;;;13.20;99.90;;;;;;5029167;28;19909;-73
2021/12/31 10:53:10;;;;;;;;;;;13.20;99.90;;;;;;5032420;28;20369;-72
2021/12/31 10:55:40;;;;;;;;;;;13.20;99.90;;;;;;5036767;28;19916;-70
2021/12/31 10:58:06;;;;;;;;;;;13.20;99.90;;;;;;5033128;28;20020;-70
2021/12/31 11:00:37;;;;;;;;;;;13.30;99.90;;;;;;5038009;28;19935;-69
2021/12/31 11:03:03;;;;;;;;;;;13.30;99.90;;;;;;5032382;28;19928;-70
2021/12/31 11:05:29;;;;;;;;;;;13.30;99.90;;;;;;5010738;28;20397;-69
2021/12/31 11:07:58;;;;;;;;;;;13.30;99.90;;;;;;5028952;28;19909;-71
2021/12/31 11:10:25;;;;;;;;;;;13.30;99.90;;;;;;5028095;28;19910;-70
2021/12/31 11:12:51;;;;;;;;;;;13.40;99.90;;;;;;5048090;28;20000;-73
2021/12/31 11:15:17;;;;;;;;;;;13.40;99.90;;;;;;5047795;28;19935;-70
2021/12/31 11:17:42;;;;;;;;;;;13.50;99.90;;;;;;5048091;28;19987;-71
2021/12/31 11:20:08;;;;;;;;;;;13.50;99.90;;;;;;5046650;28;20012;-71
2021/12/31 11:22:34;;;;;;;;;;;13.60;99.90;;;;;;5048141;28;20361;-69
2021/12/31 11:25:18;;;;;;;;;;;13.60;99.90;;;;;;5049303;28;19909;-70
2021/12/31 11:27:47;;;;;;;;;;;13.60;99.90;;;;;;5055204;28;19970;-70
2021/12/31 11:30:28;;;;;;;;;;;13.50;99.90;;;;;;5056281;28;19916;-70
2021/12/31 11:32:56;;;;;;;;;;;13.40;99.90;;;;;;5024821;28;19912;-69
2021/12/31 11:35:46;;;;;;;;;;;13.20;99.90;;;;;;5037383;28;19948;-70
2021/12/31 11:38:13;;;;;;;;;;;13.20;99.90;;;;;;5030005;28;19926;-70
2021/12/31 11:40:40;;;;;;;;;;;13.10;99.90;;;;;;5036428;28;20410;-71
2021/12/31 11:43:19;;;;;;;;;;;13.20;99.90;;;;;;5033080;28;19920;-70
2021/12/31 11:46:04;;;;;;;;;;;13.10;99.90;;;;;;5023931;28;20127;-69
2021/12/31 11:48:48;;;;;;;;;;;13.20;99.90;;;;;;5027956;28;19960;-72
2021/12/31 11:51:16;;;;;;;;;;;13.20;99.90;;;;;;5031454;28;19944;-69
2021/12/31 11:54:00;;;;;;;;;;;13.20;99.90;;;;;;5029338;28;19913;-70
2021/12/31 11:56:46;;;;;;;;;;;13.30;99.90;;;;;;5028222;28;19913;-70
2021/12/31 11:59:20;;;;;;;;;;;13.30;99.90;;;;;;5015821;28;20382;-70
2021/12/31 12:02:13;;;;;;;;;;;13.30;99.90;;;;;;5028197;28;19959;-68
2021/12/31 12:04:43;;;;;;;;;;;13.30;99.90;;;;;;5006927;28;20353;-71
2021/12/31 12:07:28;;;;;;;;;;;13.40;99.90;;;;;;5027323;28;19909;-71
2021/12/31 12:09:53;;;;;;;;;;;13.40;99.90;;;;;;5027039;28;19909;-68
2021/12/31 12:12:29;;;;;;;;;;;13.50;99.90;;;;;;5043135;28;19916;-71
2021/12/31 12:14:59;;;;;;;;;;;13.60;99.90;;;;;;5047429;28;20004;-70
2021/12/31 12:17:30;;;;;;;;;;;13.60;99.90;;;;;;5047889;28;19936;-71
2021/12/31 12:20:02;;;;;;;;;;;13.50;99.90;;;;;;5028871;28;20206;-71
2021/12/31 12:22:34;;;;;;;;;;;13.60;99.90;;;;;;5029364;28;19924;-68
2021/12/31 12:25:00;;;;;;;;;;;13.50;99.90;;;;;;5052631;28;19920;-72
2021/12/31 12:27:26;;;;;;;;;;;13.50;99.90;;;;;;5066200;28;19968;-69
2021/12/31 12:29:52;;;;;;;;;;;13.50;99.90;;;;;;5045704;28;19975;-70
2021/12/31 12:32:30;;;;;;;;;;;13.50;99.90;;;;;;5026022;28;20012;-74
2021/12/31 12:34:56;;;;;;;;;;;13.50;99.90;;;;;;5033399;28;20007;-71
2021/12/31 12:37:28;;;;;;;;;;;13.40;99.90;;;;;;5028056;28;20029;-71
2021/12/31 12:40:00;;;;;;;;;;;13.40;99.90;;;;;;5046968;28;19951;-73
2021/12/31 12:42:25;;;;;;;;;;;13.30;99.90;;;;;;5037069;28;19912;-75
2021/12/31 12:45:17;;;;;;;;;;;13.30;99.90;;;;;;5034952;28;20467;-70
2021/12/31 12:47:50;;;;;;;;;;;13.30;99.90;;;;;;5022426;28;19917;-70
2021/12/31 12:50:15;;;;;;;;;;;13.30;99.90;;;;;;5026417;28;20003;-70
2021/12/31 12:52:51;;;;;;;;;;;13.30;99.90;;;;;;5026016;28;19963;-70
2021/12/31 12:55:17;;;;;;;;;;;13.30;99.90;;;;;;5009138;28;19933;-70
2021/12/31 12:57:50;;;;;;;;;;;13.40;99.90;;;;;;5027748;28;19924;-71
2021/12/31 13:00:15;;;;;;;;;;;13.40;99.90;;;;;;5029349;28;20107;-70
2021/12/31 13:02:42;;;;;;;;;;;13.40;99.90;;;;;;5030409;28;19913;-71
2021/12/31 13:05:09;;;;;;;;;;;13.40;99.90;;;;;;5031639;28;19982;-73
2021/12/31 13:07:34;;;;;;;;;;;13.40;99.90;;;;;;5040959;28;20141;-71
2021/12/31 13:10:07;;;;;;;;;;;13.40;99.90;;;;;;5039361;28;19999;-69
2021/12/31 13:12:33;;;;;;;;;;;13.40;99.90;;;;;;5022487;28;20381;-71
2021/12/31 13:15:00;;;;;;;;;;;13.30;99.90;;;;;;5022461;28;19925;-71
2021/12/31 13:17:27;;;;;;;;;;;13.30;99.90;;;;;;5039004;28;20011;-72
2021/12/31 13:20:03;;;;;;;;;;;13.30;99.90;;;;;;5032044;28;19996;-71
2021/12/31 13:22:33;;;;;;;;;;;13.30;99.90;;;;;;5033443;28;20162;-72
2021/12/31 13:24:58;;;;;;;;;;;13.30;99.90;;;;;;5037345;28;20412;-71
2021/12/31 13:27:24;;;;;;;;;;;13.30;99.90;;;;;;5048536;28;20241;-72
2021/12/31 13:29:53;;;;;;;;;;;13.30;99.90;;;;;;5044679;28;19921;-71
2021/12/31 13:32:20;;;;;;;;;;;13.20;99.90;;;;;;5028856;28;19920;-73
2021/12/31 13:34:46;;;;;;;;;;;13.10;99.90;;;;;;5026885;28;19917;-74
2021/12/31 13:37:29;;;;;;;;;;;13.20;99.90;;;;;;5006619;28;20163;-71
2021/12/31 13:40:10;;;;;;;;;;;13.20;99.90;;;;;;4989916;28;20383;-72
2021/12/31 13:42:37;;;;;;;;;;;13.10;99.90;;;;;;5008256;28;20386;-72
2021/12/31 13:45:03;;;;;;;;;;;13.10;99.90;;;;;;5015581;28;20003;-70
2021/12/31 13:47:28;;;;;;;;;;;13.10;99.90;;;;;;5040791;28;19944;-74
2021/12/31 13:49:55;;;;;;;;;;;13.10;99.90;;;;;;5049880;28;20612;-72
2021/12/31 13:52:22;;;;;;;;;;;13.10;99.90;;;;;;5038251;28;19914;-70
2021/12/31 13:54:48;;;;;;;;;;;13.10;99.90;;;;;;5042394;28;19956;-75
2021/12/31 13:57:17;;;;;;;;;;;13.10;99.90;;;;;;5011363;28;19940;-74
2021/12/31 13:59:42;;;;;;;;;;;13.10;99.90;;;;;;5028884;28;20016;-73
2021/12/31 14:02:08;;;;;;;;;;;13.10;99.90;;;;;;5028488;28;19919;-71
2021/12/31 14:04:54;;;;;;;;;;;13.10;99.90;;;;;;5013996;28;20346;-70
2021/12/31 14:07:22;;;;;;;;;;;13.00;99.90;;;;;;5017395;28;19920;-72
2021/12/31 14:09:50;;;;;;;;;;;13.00;99.90;;;;;;5042141;28;19955;-72
2021/12/31 14:12:16;;;;;;;;;;;12.90;99.90;;;;;;5034818;28;20010;-71
2021/12/31 14:14:42;;;;;;;;;;;12.80;99.90;;;;;;5025394;28;19964;-71
2021/12/31 14:17:08;;;;;;;;;;;12.70;99.90;;;;;;5034809;28;20527;-71
2021/12/31 14:19:34;;;;;;;;;;;12.70;99.90;;;;;;5048280;28;19944;-71